Time;durP1;ratioP1;P1;durP2;ratioP2;P2;SDS_P1;SDS_P2;PMS_P1;PMS_P2;Temp;Humidity;BMP_temperature;BMP_pressure;BME280_temperature;BME280_humidity;BME280_pressure;Samples;Min_cycle;Max_cycle;Signal;HPM_P1;HPM_P2
2021/07/08 00:00:48;;;;;;;4.27;2.80;;;;;;;17.19;78.83;100756.50;5028099;28;20270;-79
2021/07/08 00:03:16;;;;;;;5.53;2.70;;;;;;;17.29;79.09;100752.53;5032665;28;20230;-79
2021/07/08 00:05:43;;;;;;;6.33;2.60;;;;;;;17.37;78.40;100765.41;5041734;28;20279;-79
2021/07/08 00:08:11;;;;;;;4.37;2.33;;;;;;;17.50;78.22;100769.22;5041157;28;20261;-79
2021/07/08 00:10:41;;;;;;;2.93;2.20;;;;;;;17.56;77.48;100802.44;5042235;28;20807;-79
2021/07/08 00:13:08;;;;;;;2.90;2.00;;;;;;;17.65;76.73;100829.31;5041495;28;20247;-79
2021/07/08 00:15:35;;;;;;;3.03;2.50;;;;;;;17.54;76.23;100847.41;5042057;28;20227;-80
2021/07/08 00:18:05;;;;;;;4.20;2.60;;;;;;;17.28;77.03;100840.53;5042410;28;20260;-80
2021/07/08 00:20:33;;;;;;;4.97;2.53;;;;;;;17.12;78.97;100770.84;5041724;28;20205;-79
2021/07/08 00:22:59;;;;;;;3.47;2.77;;;;;;;17.25;78.84;100754.44;5040435;28;20250;-79
2021/07/08 00:25:28;;;;;;;4.23;2.53;;;;;;;17.41;78.44;100772.28;5040944;28;20208;-79
2021/07/08 00:27:55;;;;;;;5.07;2.80;;;;;;;17.48;78.92;100755.25;5039713;28;20262;-79
2021/07/08 00:30:22;;;;;;;4.17;2.17;;;;;;;17.52;79.53;100743.66;5040598;28;20212;-79
2021/07/08 00:32:49;;;;;;;3.10;2.80;;;;;;;17.60;80.06;100728.34;5039675;28;20236;-79
2021/07/08 00:35:15;;;;;;;2.83;2.33;;;;;;;17.66;79.20;100749.19;5040289;28;20681;-79
2021/07/08 00:37:43;;;;;;;5.43;2.40;;;;;;;17.62;77.87;100795.13;5039978;28;20220;-77
2021/07/08 00:40:12;;;;;;;3.80;2.50;;;;;;;17.67;78.86;100774.66;5039946;28;20212;-79
2021/07/08 00:42:39;;;;;;;6.10;2.60;;;;;;;17.71;79.79;100743.69;5040194;28;20253;-79
2021/07/08 00:45:08;;;;;;;3.40;2.50;;;;;;;17.69;78.49;100777.22;5040094;28;20259;-78
2021/07/08 00:47:34;;;;;;;3.90;2.83;;;;;;;17.36;77.47;100841.09;5021436;28;20240;-78
2021/07/08 00:50:00;;;;;;;4.27;2.23;;;;;;;17.40;77.70;100816.28;5020912;28;20779;-77
2021/07/08 00:52:27;;;;;;;2.33;2.13;;;;;;;17.38;78.06;100804.94;5019287;28;20259;-78
2021/07/08 00:54:55;;;;;;;3.50;2.00;;;;;;;17.32;78.00;100807.81;5020698;28;20232;-79
2021/07/08 00:57:23;;;;;;;3.93;2.63;;;;;;;17.26;78.37;100801.03;5024871;28;20202;-78
2021/07/08 00:59:52;;;;;;;9.13;2.60;;;;;;;17.30;78.83;100779.78;5041202;28;20212;-79
2021/07/08 01:02:19;;;;;;;4.73;2.27;;;;;;;17.33;79.72;100733.00;5033550;28;20230;-78
2021/07/08 01:04:47;;;;;;;4.03;2.07;;;;;;;17.37;79.08;100760.13;5039016;28;20287;-78
2021/07/08 01:07:15;;;;;;;3.37;2.50;;;;;;;17.32;78.55;100784.06;5040662;28;20455;-79
2021/07/08 01:09:42;;;;;;;4.23;2.83;;;;;;;17.16;78.76;100785.63;5040725;28;20235;-77
2021/07/08 01:12:10;;;;;;;3.77;2.67;;;;;;;17.13;79.02;100781.34;5040136;28;20219;-79
2021/07/08 01:14:37;;;;;;;2.67;2.07;;;;;;;17.09;79.44;100786.81;5040659;28;20227;-79
2021/07/08 01:17:04;;;;;;;4.47;2.30;;;;;;;17.15;78.67;100805.03;5041284;28;20209;-79
2021/07/08 01:19:32;;;;;;;2.43;1.93;;;;;;;17.02;79.45;100781.75;5022189;28;20224;-80
2021/07/08 01:22:00;;;;;;;6.53;2.57;;;;;;;17.07;79.18;100782.44;5021386;28;20236;-78
2021/07/08 01:24:26;;;;;;;2.67;2.20;;;;;;;17.00;79.79;100762.50;5022084;28;20214;-78
2021/07/08 01:26:54;;;;;;;2.40;2.20;;;;;;;17.03;79.62;100759.75;5038086;28;20288;-79
2021/07/08 01:29:20;;;;;;;3.00;2.23;;;;;;;17.03;79.39;100757.09;5040784;28;20772;-79
2021/07/08 01:31:47;;;;;;;3.90;2.33;;;;;;;17.00;79.61;100757.22;5041151;28;20377;-77
2021/07/08 01:34:13;;;;;;;2.43;2.17;;;;;;;16.98;79.90;100745.03;5040862;28;20701;-78
2021/07/08 01:36:39;;;;;;;3.37;2.73;;;;;;;17.04;79.49;100758.81;5042265;28;20679;-78
2021/07/08 01:39:07;;;;;;;3.33;2.20;;;;;;;16.87;80.20;100740.19;5040499;28;20219;-79
2021/07/08 01:41:34;;;;;;;4.33;2.80;;;;;;;16.85;80.97;100729.72;5040396;28;20251;-78
2021/07/08 01:44:00;;;;;;;2.90;2.70;;;;;;;16.13;81.62;100716.66;5039796;28;20204;-79
2021/07/08 01:46:28;;;;;;;4.07;2.73;;;;;;;15.80;83.20;100648.56;5042270;28;20287;-79
2021/07/08 01:48:54;;;;;;;3.77;2.70;;;;;;;15.88;83.52;100614.91;5040838;28;20210;-79
2021/07/08 01:51:29;;;;;;;2.93;2.67;;;;;;;16.12;83.11;100614.03;5040105;28;20260;-79
2021/07/08 01:53:56;;;;;;;6.57;3.43;;;;;;;16.26;82.70;100638.91;5038626;28;20747;-78
2021/07/08 01:56:24;;;;;;;4.73;3.30;;;;;;;16.33;82.58;100650.03;5040010;28;20207;-79
2021/07/08 01:58:52;;;;;;;2.93;2.70;;;;;;;16.42;82.06;100656.72;5039928;28;20212;-78
2021/07/08 02:01:19;;;;;;;6.57;2.77;;;;;;;16.53;81.63;100691.44;5037961;28;20237;-78
2021/07/08 02:03:45;;;;;;;3.47;2.70;;;;;;;16.59;81.87;100688.56;5038947;28;20202;-79
2021/07/08 02:06:12;;;;;;;3.17;2.60;;;;;;;16.62;81.88;100706.00;5039079;28;20215;-79
2021/07/08 02:08:38;;;;;;;2.67;2.47;;;;;;;16.62;81.73;100712.13;5039166;28;20210;-79
2021/07/08 02:11:05;;;;;;;3.77;3.03;;;;;;;16.62;82.53;100679.66;5038371;28;20349;-79
2021/07/08 02:13:34;;;;;;;3.17;2.53;;;;;;;16.65;82.24;100688.31;5038633;28;20771;-79
2021/07/08 02:16:01;;;;;;;5.33;2.90;;;;;;;16.71;82.09;100694.22;5039422;28;20215;-77
2021/07/08 02:18:28;;;;;;;3.77;2.50;;;;;;;16.76;81.93;100706.31;5039517;28;20208;-78
2021/07/08 02:20:54;;;;;;;3.73;2.87;;;;;;;16.74;82.34;100702.88;5039084;28;20245;-78
2021/07/08 02:23:20;;;;;;;3.40;2.60;;;;;;;16.77;82.67;100696.63;5037685;28;20286;-78
2021/07/08 02:25:47;;;;;;;3.30;2.53;;;;;;;16.87;82.95;100698.88;5038853;28;20212;-78
2021/07/08 02:28:13;;;;;;;3.17;2.40;;;;;;;16.93;82.74;100710.94;5038813;28;20252;-79
2021/07/08 02:30:41;;;;;;;4.93;2.80;;;;;;;16.89;83.14;100688.25;5038753;28;20215;-79
2021/07/08 02:33:08;;;;;;;6.23;3.00;;;;;;;16.01;84.38;100673.22;5038455;28;20232;-79
2021/07/08 02:35:35;;;;;;;4.27;3.07;;;;;;;15.62;85.31;100625.53;5039188;28;20277;-79
2021/07/08 02:38:02;;;;;;;3.57;2.77;;;;;;;15.76;85.31;100607.47;5035008;28;20293;-79
2021/07/08 02:40:31;;;;;;;3.77;2.70;;;;;;;16.04;85.53;100607.28;5037980;28;20276;-79
2021/07/08 02:42:58;;;;;;;3.97;2.90;;;;;;;16.28;85.66;100605.44;5038615;28;20268;-79
2021/07/08 02:45:26;;;;;;;4.53;3.30;;;;;;;16.43;85.36;100611.88;5041177;28;20225;-79
2021/07/08 02:47:55;;;;;;;5.20;3.43;;;;;;;16.52;85.05;100623.81;5040589;28;20216;-79
2021/07/08 02:50:23;;;;;;;3.50;2.50;;;;;;;16.57;85.14;100627.13;5040267;28;20204;-79
2021/07/08 02:52:50;;;;;;;3.60;2.63;;;;;;;16.71;84.58;100644.16;5039458;28;20281;-79
2021/07/08 02:55:17;;;;;;;5.20;2.70;;;;;;;16.79;83.78;100677.19;5038623;28;20290;-79
2021/07/08 02:57:46;;;;;;;4.97;2.90;;;;;;;16.83;83.18;100707.81;5037637;28;20207;-78
2021/07/08 03:00:14;;;;;;;7.33;3.00;;;;;;;16.57;82.98;100731.69;5038717;28;20236;-78
2021/07/08 03:02:41;;;;;;;7.67;3.60;;;;;;;16.56;84.04;100690.44;5029535;28;20246;-79
2021/07/08 03:05:10;;;;;;;4.13;2.70;;;;;;;16.67;83.36;100698.78;5038999;28;20212;-79
2021/07/08 03:07:37;;;;;;;6.30;3.20;;;;;;;16.77;84.06;100704.53;5038395;28;20225;-79
2021/07/08 03:10:05;;;;;;;3.90;2.60;;;;;;;16.45;83.60;100709.28;5038047;28;20211;-79
2021/07/08 03:12:31;;;;;;;4.13;2.70;;;;;;;16.60;83.90;100692.03;5037577;28;20230;-78
2021/07/08 03:14:58;;;;;;;5.43;2.83;;;;;;;16.64;83.90;100691.00;5038087;28;20257;-80
2021/07/08 03:17:24;;;;;;;3.67;2.77;;;;;;;16.73;83.24;100730.19;5038301;28;20208;-78
2021/07/08 03:19:51;;;;;;;4.37;3.13;;;;;;;16.70;83.73;100719.75;5037869;28;20197;-78
2021/07/08 03:22:19;;;;;;;3.90;2.70;;;;;;;16.49;84.28;100705.66;5037945;28;20706;-80
2021/07/08 03:24:45;;;;;;;9.13;3.53;;;;;;;16.07;85.30;100682.66;5037892;28;20206;-79
2021/07/08 03:27:12;;;;;;;4.57;3.27;;;;;;;15.76;86.01;100665.38;5038115;28;20207;-79
2021/07/08 03:29:38;;;;;;;3.60;3.30;;;;;;;15.95;87.76;100607.63;5038194;28;20206;-78
2021/07/08 03:32:05;;;;;;;4.67;3.17;;;;;;;15.93;86.60;100638.41;5036891;28;20230;-79
2021/07/08 03:34:32;;;;;;;3.67;3.37;;;;;;;16.09;85.95;100659.75;5037597;28;20222;-78
2021/07/08 03:36:58;;;;;;;3.43;3.13;;;;;;;16.25;85.79;100667.91;5038328;28;20260;-79
2021/07/08 03:39:26;;;;;;;3.67;2.60;;;;;;;16.38;85.58;100697.31;5037997;28;20208;-79
2021/07/08 03:41:52;;;;;;;3.23;2.93;;;;;;;16.47;85.15;100710.09;5038185;28;20228;-77
2021/07/08 03:44:20;;;;;;;4.60;2.57;;;;;;;16.56;84.85;100716.81;5038263;28;20216;-80
2021/07/08 03:46:46;;;;;;;3.57;2.60;;;;;;;16.62;84.67;100724.47;5038588;28;20208;-78
2021/07/08 03:49:14;;;;;;;3.17;2.87;;;;;;;16.70;84.73;100717.09;5038736;28;20663;-78
2021/07/08 03:51:41;;;;;;;5.27;2.93;;;;;;;16.67;85.03;100715.47;5020478;28;20233;-80
2021/07/08 03:54:08;;;;;;;3.43;3.13;;;;;;;16.69;84.70;100707.50;5033532;28;20566;-79
2021/07/08 03:56:35;;;;;;;3.40;3.10;;;;;;;16.75;84.42;100730.97;5036895;28;20214;-79
2021/07/08 03:59:02;;;;;;;3.73;2.90;;;;;;;16.77;84.31;100731.75;5040665;28;20246;-78
2021/07/08 04:01:28;;;;;;;4.43;2.97;;;;;;;16.77;84.58;100734.41;5040766;28;20231;-79
2021/07/08 04:03:55;;;;;;;4.47;2.97;;;;;;;16.83;84.12;100752.66;5043499;28;20211;-79
2021/07/08 04:06:21;;;;;;;3.17;2.87;;;;;;;16.86;84.58;100741.09;5045410;28;20213;-77
2021/07/08 04:08:47;;;;;;;3.67;2.97;;;;;;;16.86;84.98;100728.78;5045089;28;20209;-79
2021/07/08 04:11:14;;;;;;;3.60;2.60;;;;;;;16.91;84.62;100747.06;5043922;28;20208;-78
2021/07/08 04:13:42;;;;;;;5.10;2.97;;;;;;;16.92;84.66;100743.50;5044309;28;20205;-79
2021/07/08 04:16:08;;;;;;;3.20;2.90;;;;;;;16.94;84.86;100732.88;5044303;28;20208;-79
2021/07/08 04:18:34;;;;;;;5.57;4.13;;;;;;;16.92;84.57;100732.09;5044394;28;20210;-79
2021/07/08 04:21:01;;;;;;;3.30;3.10;;;;;;;16.72;85.31;100730.22;5045075;28;20207;-79
2021/07/08 04:23:27;;;;;;;3.13;2.93;;;;;;;16.85;85.94;100692.78;5043320;28;20234;-78
2021/07/08 04:25:54;;;;;;;3.10;2.90;;;;;;;16.94;85.14;100711.78;5040213;28;20204;-79
2021/07/08 04:28:20;;;;;;;2.83;2.63;;;;;;;17.00;85.06;100716.81;5025620;28;20212;-79
2021/07/08 04:30:48;;;;;;;3.63;3.30;;;;;;;17.04;84.67;100732.44;5032748;28;20212;-79
2021/07/08 04:33:14;;;;;;;3.33;3.07;;;;;;;17.10;84.97;100727.84;5044610;28;20238;-80
2021/07/08 04:35:41;;;;;;;3.30;3.00;;;;;;;17.15;84.94;100737.28;5045913;28;20229;-79
2021/07/08 04:38:09;;;;;;;2.50;2.30;;;;;;;17.20;84.83;100732.66;5045750;28;20291;-78
2021/07/08 04:40:36;;;;;;;4.50;3.17;;;;;;;17.27;84.69;100736.78;5046110;28;20275;-78
2021/07/08 04:43:03;;;;;;;3.20;2.90;;;;;;;17.37;84.86;100739.03;5044145;28;20228;-78
2021/07/08 04:45:30;;;;;;;3.20;2.90;;;;;;;17.47;85.51;100719.22;5045903;28;20224;-79
2021/07/08 04:47:58;;;;;;;3.60;2.70;;;;;;;17.54;84.93;100728.63;5045907;28;20207;-79
2021/07/08 04:50:25;;;;;;;3.23;2.90;;;;;;;17.52;84.58;100733.09;5045107;28;20204;-79
2021/07/08 04:52:52;;;;;;;3.43;3.13;;;;;;;17.31;83.86;100776.22;5044290;28;20255;-79
2021/07/08 04:55:21;;;;;;;5.10;3.50;;;;;;;17.30;83.93;100759.53;5045024;28;20768;-78
2021/07/08 04:57:48;;;;;;;3.53;3.07;;;;;;;17.41;83.65;100773.13;5044880;28;20203;-79
2021/07/08 05:00:18;;;;;;;6.60;3.50;;;;;;;17.49;83.45;100790.44;5043934;28;20224;-78
2021/07/08 05:02:44;;;;;;;4.13;3.67;;;;;;;17.50;83.14;100813.25;5035535;28;20262;-79
2021/07/08 05:05:13;;;;;;;4.20;3.53;;;;;;;17.36;83.36;100805.91;5045173;28;20260;-79
2021/07/08 05:07:40;;;;;;;5.10;3.60;;;;;;;17.51;84.04;100794.72;5043608;23;20234;-75
2021/07/08 05:10:09;;;;;;;4.83;3.77;;;;;;;17.44;84.42;100775.66;5015823;28;20825;-74
2021/07/08 05:12:36;;;;;;;5.07;3.40;;;;;;;17.59;84.52;100778.56;5013105;28;20214;-74
2021/07/08 05:15:03;;;;;;;4.43;3.43;;;;;;;17.70;83.91;100794.81;5013025;28;20237;-74
2021/07/08 05:17:29;;;;;;;4.93;3.20;;;;;;;17.78;83.98;100792.69;5013711;28;20234;-74
2021/07/08 05:19:56;;;;;;;6.13;3.90;;;;;;;17.02;83.82;100826.59;5013782;28;20216;-74
2021/07/08 05:22:23;;;;;;;4.63;3.90;;;;;;;17.15;85.09;100768.09;5011893;28;20216;-73
2021/07/08 05:24:50;;;;;;;4.57;3.53;;;;;;;17.34;85.54;100754.97;5014486;28;20207;-74
2021/07/08 05:27:17;;;;;;;3.80;3.47;;;;;;;17.52;85.48;100751.56;5013377;28;20355;-74
2021/07/08 05:29:44;;;;;;;4.43;3.93;;;;;;;17.72;84.57;100778.88;5011951;28;20264;-74
2021/07/08 05:32:13;;;;;;;5.43;4.03;;;;;;;17.63;83.47;100839.06;5012573;28;20198;-73
2021/07/08 05:34:39;;;;;;;8.07;3.90;;;;;;;17.33;84.66;100803.41;5012925;28;20313;-75
2021/07/08 05:37:05;;;;;;;7.10;3.90;;;;;;;17.36;84.98;100787.44;5010362;28;20276;-74
2021/07/08 05:39:33;;;;;;;5.07;4.47;;;;;;;16.93;86.77;100732.03;5013067;28;20225;-75
2021/07/08 05:42:00;;;;;;;6.50;4.30;;;;;;;16.96;87.29;100707.31;5013228;28;20268;-74
2021/07/08 05:44:26;;;;;;;6.57;4.03;;;;;;;16.78;88.03;100693.91;5013865;28;20236;-75
2021/07/08 05:46:52;;;;;;;4.80;4.30;;;;;;;16.81;88.44;100675.38;5013228;28;20787;-74
2021/07/08 05:49:19;;;;;;;6.93;3.97;;;;;;;17.09;87.91;100682.16;5012679;28;20235;-74
2021/07/08 05:51:45;;;;;;;8.33;3.80;;;;;;;17.27;87.16;100710.38;5010280;28;20244;-74
2021/07/08 05:54:11;;;;;;;8.20;3.83;;;;;;;17.51;85.72;100772.75;5011932;28;20254;-75
2021/07/08 05:56:39;;;;;;;5.30;4.00;;;;;;;17.67;85.21;100808.13;5012269;28;20272;-74
2021/07/08 05:59:06;;;;;;;5.53;3.90;;;;;;;17.78;84.18;100839.34;5009629;28;20284;-74
2021/07/08 06:01:32;;;;;;;4.50;4.10;;;;;;;17.87;84.38;100841.63;5011991;28;20683;-75
2021/07/08 06:03:58;;;;;;;5.67;3.60;;;;;;;17.72;82.49;100901.22;5011085;28;20284;-74
2021/07/08 06:06:25;;;;;;;4.23;3.13;;;;;;;17.91;82.33;100935.66;5008936;28;20234;-75
2021/07/08 06:08:51;;;;;;;5.70;3.43;;;;;;;18.04;83.06;100914.88;5012321;28;20677;-74
2021/07/08 06:11:18;;;;;;;3.90;3.30;;;;;;;18.19;83.52;100886.94;5012144;28;20206;-75
2021/07/08 06:13:46;;;;;;;4.20;3.73;;;;;;;18.46;84.94;100856.63;5011770;28;20268;-75
2021/07/08 06:16:12;;;;;;;4.30;3.40;;;;;;;18.71;84.76;100842.31;5012174;28;20229;-74
2021/07/08 06:18:39;;;;;;;3.50;3.20;;;;;;;18.96;84.14;100863.19;5012478;28;20746;-75
2021/07/08 06:21:05;;;;;;;6.27;2.93;;;;;;;19.13;83.26;100903.91;5012619;28;20218;-74
2021/07/08 06:23:32;;;;;;;5.37;3.10;;;;;;;19.26;82.34;100934.13;5012049;28;20206;-74
2021/07/08 06:25:59;;;;;;;4.93;3.10;;;;;;;19.36;82.01;100964.53;5012336;28;20252;-74
2021/07/08 06:28:25;;;;;;;3.07;2.67;;;;;;;19.47;81.81;100971.13;5016115;28;20288;-74
2021/07/08 06:30:53;;;;;;;4.17;2.57;;;;;;;19.52;81.91;100961.16;5012657;28;20288;-74
2021/07/08 06:33:19;;;;;;;3.60;2.70;;;;;;;19.57;82.27;100943.25;5011936;28;20642;-74
2021/07/08 06:35:48;;;;;;;4.33;3.07;;;;;;;19.65;82.26;100927.84;5012123;28;20284;-74
2021/07/08 06:38:15;;;;;;;6.73;3.30;;;;;;;19.76;82.11;100925.59;5012379;28;20225;-75
2021/07/08 06:40:42;;;;;;;7.30;3.70;;;;;;;19.77;81.41;100960.88;5012831;28;20243;-74
2021/07/08 06:43:08;;;;;;;3.90;3.50;;;;;;;19.74;80.62;100996.31;5011849;28;20195;-74
2021/07/08 06:45:36;;;;;;;8.40;3.20;;;;;;;19.76;80.04;101018.28;5012044;28;20210;-74
2021/07/08 06:48:05;;;;;;;5.97;3.50;;;;;;;19.75;80.76;101011.25;5012472;28;20297;-74
2021/07/08 06:50:33;;;;;;;22.40;6.73;;;;;;;19.89;81.57;100975.31;5011942;28;20356;-75
2021/07/08 06:53:00;;;;;;;5.20;3.33;;;;;;;19.79;80.15;101018.13;5011842;28;20242;-75
2021/07/08 06:55:27;;;;;;;5.73;3.43;;;;;;;19.83;80.01;101051.50;5004784;28;20236;-75
2021/07/08 06:57:53;;;;;;;5.67;3.87;;;;;;;19.95;80.04;101055.34;5011189;28;20789;-75
2021/07/08 07:00:21;;;;;;;5.47;3.17;;;;;;;20.06;79.20;101081.34;5011662;28;20217;-74
2021/07/08 07:02:49;;;;;;;5.40;3.37;;;;;;;20.19;79.41;101071.84;5011095;28;20277;-74
2021/07/08 07:05:17;;;;;;;4.13;3.57;;;;;;;20.28;78.16;101112.09;5010272;28;20206;-76
2021/07/08 07:07:50;;;;;;;4.43;3.23;;;;;;;20.23;78.69;101091.09;5011109;28;20234;-76
2021/07/08 07:10:17;;;;;;;5.00;3.50;;;;;;;20.20;78.90;101094.78;5024750;28;20208;-75
2021/07/08 07:12:45;;;;;;;3.40;3.10;;;;;;;20.29;78.51;101103.22;5031165;28;20227;-75
2021/07/08 07:15:13;;;;;;;4.77;3.30;;;;;;;20.42;78.56;101096.38;5031921;28;20316;-75
2021/07/08 07:17:40;;;;;;;3.27;2.87;;;;;;;20.41;78.05;101118.50;5019508;28;20699;-75
2021/07/08 07:20:09;;;;;;;3.67;3.37;;;;;;;20.55;77.87;101116.03;5012826;28;20269;-74
2021/07/08 07:22:38;;;;;;;3.27;3.07;;;;;;;20.66;77.85;101122.66;5011634;28;20628;-75
2021/07/08 07:25:06;;;;;;;5.30;3.07;;;;;;;20.77;77.78;101110.56;5010624;28;20205;-74
2021/07/08 07:27:33;;;;;;;3.50;2.87;;;;;;;20.86;76.70;101162.31;5011911;28;20233;-75
2021/07/08 07:30:03;;;;;;;3.40;2.77;;;;;;;20.88;76.36;101176.34;5021855;28;20264;-76
2021/07/08 07:32:29;;;;;;;3.70;3.30;;;;;;;20.92;76.09;101200.94;5031674;28;20213;-74
2021/07/08 07:34:55;;;;;;;4.23;3.30;;;;;;;21.01;76.04;101205.81;5017558;28;20214;-75
2021/07/08 07:37:22;;;;;;;3.50;2.90;;;;;;;21.06;76.28;101198.44;5012143;28;20641;-76
2021/07/08 07:39:50;;;;;;;5.47;3.00;;;;;;;21.15;77.32;101151.97;5015759;28;20206;-76
2021/07/08 07:42:16;;;;;;;3.20;2.90;;;;;;;21.25;77.16;101129.34;5015532;28;20289;-76
2021/07/08 07:44:44;;;;;;;6.10;3.50;;;;;;;21.30;76.66;101160.94;5017820;28;20202;-74
2021/07/08 07:47:11;;;;;;;4.70;3.40;;;;;;;21.33;76.28;101182.06;5015500;28;20787;-76
2021/07/08 07:49:38;;;;;;;3.63;3.33;;;;;;;21.33;75.90;101209.47;5015227;28;20207;-73
2021/07/08 07:52:06;;;;;;;5.17;3.53;;;;;;;21.41;75.35;101215.22;5013659;28;20214;-75
2021/07/08 07:54:33;;;;;;;5.80;3.10;;;;;;;21.40;74.86;101258.66;5014189;28;20210;-76
2021/07/08 07:57:03;;;;;;;6.07;3.57;;;;;;;21.35;74.85;101252.72;5024311;28;20663;-76
2021/07/08 07:59:29;;;;;;;5.23;3.13;;;;;;;21.47;74.60;101251.28;5035279;28;20229;-76
2021/07/08 08:01:56;;;;;;;3.93;3.23;;;;;;;21.51;75.24;101228.06;5034272;28;20742;-76
2021/07/08 08:04:23;;;;;;;4.00;2.97;;;;;;;21.59;76.17;101178.06;5034999;28;20563;-74
2021/07/08 08:09:34;;;;;;;2.97;2.67;;;;;;;21.73;77.04;101132.13;5013709;28;20202;-73
2021/07/08 08:12:02;;;;;;;3.30;2.83;;;;;;;21.70;76.45;101174.81;5014030;28;20203;-72
2021/07/08 08:14:29;;;;;;;9.93;3.60;;;;;;;21.50;76.14;101191.81;5013981;28;20280;-76
2021/07/08 08:16:55;;;;;;;3.20;2.90;;;;;;;21.39;75.67;101227.72;5013142;28;20241;-75
2021/07/08 08:19:22;;;;;;;3.67;2.57;;;;;;;21.31;75.04;101264.44;5011885;28;20214;-75
2021/07/08 08:21:48;;;;;;;4.27;2.80;;;;;;;21.18;73.47;101338.53;5014365;28;20211;-75
2021/07/08 08:24:14;;;;;;;5.33;2.80;;;;;;;21.37;74.10;101309.28;5014143;28;20249;-75
2021/07/08 08:26:41;;;;;;;4.23;2.97;;;;;;;21.18;73.46;101340.34;5014686;28;20218;-75
2021/07/08 08:29:09;;;;;;;3.13;2.50;;;;;;;21.36;73.83;101304.91;5014471;28;20210;-75
2021/07/08 08:31:35;;;;;;;2.93;2.67;;;;;;;21.05;72.72;101358.69;5014525;28;20199;-75
2021/07/08 08:34:02;;;;;;;5.53;3.03;;;;;;;20.90;73.48;101322.25;5011409;28;20234;-75
2021/07/08 08:36:28;;;;;;;2.93;2.67;;;;;;;21.03;74.15;101288.88;5013037;28;20230;-75
2021/07/08 08:38:54;;;;;;;4.63;2.80;;;;;;;21.28;74.33;101267.25;5014793;28;20276;-75
2021/07/08 08:41:21;;;;;;;3.67;2.33;;;;;;;21.25;74.76;101269.19;5014421;28;20213;-75
2021/07/08 08:43:47;;;;;;;2.93;2.60;;;;;;;21.00;73.59;101316.41;5014115;28;20233;-75
2021/07/08 08:46:15;;;;;;;3.30;3.00;;;;;;;20.88;75.93;101240.03;5014123;28;20209;-74
2021/07/08 08:48:41;;;;;;;3.23;2.93;;;;;;;20.98;76.61;101198.84;5012495;28;20210;-75
2021/07/08 08:51:08;;;;;;;5.43;3.10;;;;;;;21.12;75.90;101224.69;5014625;28;20218;-75
2021/07/08 08:53:35;;;;;;;4.53;2.77;;;;;;;21.37;76.56;101186.25;5013868;28;20681;-74
2021/07/08 08:56:02;;;;;;;3.97;2.87;;;;;;;21.52;75.95;101195.25;5014067;28;20234;-75
2021/07/08 08:58:28;;;;;;;5.07;2.80;;;;;;;21.61;74.28;101279.78;5014426;28;20688;-75
2021/07/08 09:00:56;;;;;;;4.77;2.60;;;;;;;21.69;72.40;101333.41;5014108;28;20210;-75
2021/07/08 09:03:26;;;;;;;3.70;2.90;;;;;;;21.74;72.18;101367.69;5013977;28;20213;-76
2021/07/08 09:06:01;;;;;;;3.90;2.60;;;;;;;21.71;71.12;101405.94;5014414;28;20280;-76
2021/07/08 09:08:28;;;;;;;3.17;2.63;;;;;;;21.80;71.99;101370.03;5014097;28;20245;-75
2021/07/08 09:11:08;;;;;;;3.07;2.67;;;;;;;21.90;72.03;101394.34;5014033;28;20260;-75
2021/07/08 09:13:52;;;;;;;4.03;2.70;;;;;;;22.05;72.14;101380.28;5013486;28;20656;-75
2021/07/08 09:16:21;;;;;;;4.63;3.30;;;;;;;22.25;70.99;101405.00;5014201;28;20237;-75
2021/07/08 09:19:00;;;;;;;3.30;3.00;;;;;;;22.21;72.51;101349.28;5012402;28;20662;-75
2021/07/08 09:21:28;;;;;;;2.83;2.63;;;;;;;22.43;72.68;101318.03;5013714;28;20628;-75
2021/07/08 09:24:10;;;;;;;3.60;2.50;;;;;;;22.68;72.69;101306.91;5013245;28;20202;-76
2021/07/08 09:26:38;;;;;;;4.43;2.70;;;;;;;22.79;72.27;101341.75;5010907;28;20221;-76
2021/07/08 09:29:06;;;;;;;5.33;2.63;;;;;;;22.96;71.20;101383.41;5013518;28;20615;-75
2021/07/08 09:31:34;;;;;;;2.90;2.60;;;;;;;22.97;71.34;101390.44;5013932;28;20685;-76
2021/07/08 09:34:14;;;;;;;3.23;2.90;;;;;;;23.11;71.30;101379.94;5013957;28;20221;-76
2021/07/08 09:36:41;;;;;;;4.80;2.50;;;;;;;23.25;71.56;101371.16;5013515;28;20291;-73
2021/07/08 09:39:10;;;;;;;2.97;2.53;;;;;;;23.34;72.27;101343.97;5012316;28;20206;-76
2021/07/08 09:41:46;;;;;;;3.17;2.87;;;;;;;23.40;70.10;101425.34;5004331;28;20213;-75
2021/07/08 09:44:20;;;;;;;3.67;2.73;;;;;;;23.17;67.08;101575.81;5013126;28;20305;-75
2021/07/08 09:46:46;;;;;;;4.80;2.67;;;;;;;23.37;69.08;101485.03;5011577;28;20229;-75
2021/07/08 09:49:14;;;;;;;3.03;2.70;;;;;;;23.49;68.40;101501.25;5013134;28;20218;-75
2021/07/08 09:51:41;;;;;;;3.83;2.80;;;;;;;23.49;68.96;101478.16;5012697;28;20614;-75
2021/07/08 09:54:11;;;;;;;3.63;2.77;;;;;;;23.63;68.34;101493.34;5013380;28;20207;-76
2021/07/08 09:56:46;;;;;;;3.60;3.10;;;;;;;23.67;67.90;101518.03;5014097;28;20237;-75
2021/07/08 09:59:15;;;;;;;5.27;3.23;;;;;;;23.65;66.73;101560.78;5013405;28;20262;-75
2021/07/08 10:01:43;;;;;;;3.30;2.70;;;;;;;23.66;67.32;101543.81;5012555;28;20307;-75
2021/07/08 10:04:10;;;;;;;3.87;2.70;;;;;;;23.70;67.12;101537.34;5012510;28;20230;-72
2021/07/08 10:06:38;;;;;;;2.87;2.50;;;;;;;23.71;65.99;101603.06;5012736;28;20289;-73
2021/07/08 10:09:06;;;;;;;3.83;2.90;;;;;;;23.67;68.03;101534.03;5012917;28;20277;-73
2021/07/08 10:11:33;;;;;;;5.10;2.73;;;;;;;23.77;67.00;101516.56;5012861;28;20225;-76
2021/07/08 10:14:02;;;;;;;3.93;2.97;;;;;;;23.79;66.49;101566.22;5012840;28;20205;-75
2021/07/08 10:16:31;;;;;;;4.60;3.37;;;;;;;23.88;65.86;101582.63;5004817;28;20231;-76
2021/07/08 10:19:01;;;;;;;4.10;2.93;;;;;;;23.93;65.66;101589.44;5004712;28;20206;-75
2021/07/08 10:21:30;;;;;;;10.20;3.00;;;;;;;23.86;65.27;101613.84;5013152;28;20209;-76
2021/07/08 10:23:59;;;;;;;5.87;2.77;;;;;;;23.81;65.58;101575.94;5012464;28;20217;-75
2021/07/08 10:26:26;;;;;;;5.10;3.17;;;;;;;23.86;65.54;101584.53;5012592;28;20790;-75
2021/07/08 10:28:54;;;;;;;4.67;3.53;;;;;;;23.87;64.82;101605.78;5012548;28;20230;-75
2021/07/08 10:31:23;;;;;;;4.60;2.93;;;;;;;23.92;63.91;101632.19;5012070;28;20213;-74
2021/07/08 10:34:09;;;;;;;5.17;3.40;;;;;;;23.19;63.71;101675.16;5012240;28;20207;-74
2021/07/08 10:36:37;;;;;;;5.27;3.40;;;;;;;22.96;65.50;101602.63;5012434;28;20233;-73
2021/07/08 10:39:07;;;;;;;3.67;3.00;;;;;;;23.22;67.09;101515.16;5012070;28;20214;-73
2021/07/08 10:41:44;;;;;;;6.70;3.27;;;;;;;23.22;65.62;101556.94;5011168;28;20208;-75
2021/07/08 10:44:48;;;;;;;7.00;3.70;;;;;;;23.49;65.98;101558.09;5011110;28;20237;-74
2021/07/08 10:47:37;;;;;;;6.00;2.83;;;;;;;23.78;66.13;101539.63;5011345;28;20283;-74
2021/07/08 10:50:05;;;;;;;6.83;2.90;;;;;;;23.96;65.06;101559.94;5008774;28;20199;-74
2021/07/08 10:52:48;;;;;;;4.63;2.90;;;;;;;24.13;63.10;101624.78;5011391;28;20260;-74
2021/07/08 10:55:37;;;;;;;3.47;2.83;;;;;;;24.18;62.69;101668.94;5010739;28;20295;-76
2021/07/08 10:58:04;;;;;;;5.43;3.57;;;;;;;24.24;63.83;101617.03;5008992;28;20243;-75
2021/07/08 11:00:45;;;;;;;4.00;2.87;;;;;;;24.30;64.06;101599.78;5011232;28;20202;-74
2021/07/08 11:03:44;;;;;;;5.23;2.87;;;;;;;24.37;64.08;101571.78;5009914;28;20562;-74
2021/07/08 11:06:13;;;;;;;6.77;3.47;;;;;;;24.42;60.10;101739.66;5009611;28;20195;-75
2021/07/08 11:08:51;;;;;;;4.37;3.20;;;;;;;24.34;62.86;101663.59;5011489;28;20205;-74
2021/07/08 11:11:51;;;;;;;5.13;3.10;;;;;;;24.62;62.44;101634.44;5010066;28;20219;-74
2021/07/08 11:14:26;;;;;;;7.90;3.27;;;;;;;24.83;63.43;101597.59;5035061;22;20230;-79
2021/07/08 11:16:54;;;;;;;4.43;3.13;;;;;;;24.96;60.23;101738.34;5030516;28;20709;-78
2021/07/08 11:19:36;;;;;;;5.20;2.90;;;;;;;25.16;60.29;101713.09;5034073;28;20695;-79
2021/07/08 11:22:06;;;;;;;3.70;2.60;;;;;;;25.32;58.49;101787.91;5033262;28;20209;-78
2021/07/08 11:24:44;;;;;;;5.13;3.30;;;;;;;25.42;58.10;101806.09;5022221;28;20217;-80
2021/07/08 11:27:13;;;;;;;2.93;2.50;;;;;;;25.59;59.00;101754.25;5015440;28;20246;-78
2021/07/08 11:29:42;;;;;;;5.03;2.90;;;;;;;25.81;58.84;101764.47;5014711;28;20203;-78
2021/07/08 11:32:21;;;;;;;6.17;3.10;;;;;;;25.97;58.31;101789.38;5014828;28;20215;-78